Oklahoma City, OK (73111)

1:57 PM CDT on July 31, 2015 (GMT -0500)
RB Akins Co | | Change Station
CLOSE
Current Station
Personal Weather Station
Location: Oklahoma City, OK
Elevation: 1175 ft
Nearby Weather Stations

Elev 1175 ft 35.52 °N, 97.51 °W | Updated 31 minutes ago

Mostly Cloudy
Mostly Cloudy
93.9 °F
Feels Like 108 °F
N
6.8
Wind Variable Wind from ESE

Today
High -- | Low -- °F
--% Chance of Precip.
Yesterday
High -- | Low -- °F
Precip. -- in
6:37 AM 8:34 PM
Full, 100% visible
Pressure 30.12 in
Visibility 10.0 miles
Clouds Few 6000 ft
Heat Index 108 °F
Dew Point 77 °F
Humidity 58%
Rainfall 0.00 in
Snow Depth Not available.
UV 11 out of 12
Pollen 1.10 out of 12
Air Quality Not available.
Flu Activity Not available.
METAR KTIK 311758Z AUTO 10006KT 10SM FEW060 28/23 A3014 RMK AO2 SLP200 60000 T02790227 10284 20238 55005 $

More Conditions Fewer Conditions

Pressure 30.12 in
Visibility 10.0 miles
Clouds Few 6000 ft
Heat Index 108 °F
Dew Point 77 °F
Humidity 58%
Rainfall 0.00 in
Snow Depth Not available.
UV 11 out of 12
Pollen 1.10 out of 12
Air Quality Not available.
Flu Activity Not available.
METAR KTIK 311758Z AUTO 10006KT 10SM FEW060 28/23 A3014 RMK AO2 SLP200 60000 T02790227 10284 20238 55005 $

More Conditions Fewer Conditions

10-Day Weather Forecast

×

Almanac

Astronomy

Jul. 31, 2015 Rise Set
Actual Time
Civil Twilight
Nautical Twilight
Astronomical Twilight
Moon
Length of Visible Light
Length of Day
Tomorrow will be .
, % of the Moon is Illuminated

Today's Extremes

State Highs State Lows

Community

WunderPhotos

Upload Photos

1,842,708 photos uploaded!

WunderBlogs® & News

Nearby

Air Quality

  Air Quality AQ Index Pollutant
Not available.

Snow Depth

Station Depth Elevation

Earthquake Activity

City Distance Mag. Time & Date
Minimum magnitude displayed is 2.5.

Coastal Water Temperatures

Place Temperature

Stations

Nearby Weather Stations

Station Location Temp. Windchill Dew Point Humidity Wind Precip. Elev Updated Type